createdAt,value
2023-02-22T00:00:46.040Z,1008.27
2023-02-22T00:01:46.042Z,1008.27
2023-02-22T00:02:46.042Z,1008.26
2023-02-22T00:03:45.988Z,1008.22
2023-02-22T00:04:45.990Z,1008.21
2023-02-22T00:05:46.036Z,1008.28
2023-02-22T00:06:45.988Z,1008.30
2023-02-22T00:07:45.968Z,1008.27
2023-02-22T00:08:45.969Z,1008.30
2023-02-22T00:09:46.004Z,1008.25
2023-02-22T00:10:45.933Z,1008.24
2023-02-22T00:11:45.914Z,1008.24
2023-02-22T00:12:45.909Z,1008.22
2023-02-22T00:13:45.898Z,1008.23
2023-02-22T00:14:45.895Z,1008.23
2023-02-22T00:15:45.874Z,1008.26
2023-02-22T00:16:45.884Z,1008.26
2023-02-22T00:17:45.838Z,1008.25
2023-02-22T00:18:45.876Z,1008.24
2023-02-22T00:19:45.844Z,1008.24
2023-02-22T00:20:45.838Z,1008.22
2023-02-22T00:21:45.810Z,1008.22
2023-02-22T00:22:45.858Z,1008.20
2023-02-22T00:23:45.843Z,1008.19
2023-02-22T00:24:45.796Z,1008.20
2023-02-22T00:25:45.754Z,1008.19
2023-02-22T00:26:45.770Z,1008.22
2023-02-22T00:27:45.759Z,1008.19
2023-02-22T00:28:45.741Z,1008.17
2023-02-22T00:29:45.714Z,1008.15
2023-02-22T00:30:45.721Z,1008.11
2023-02-22T00:31:45.785Z,1008.14
2023-02-22T00:32:45.738Z,1008.21
2023-02-22T00:33:45.676Z,1008.15
2023-02-22T00:34:45.708Z,1008.13
2023-02-22T00:35:45.652Z,1008.17
2023-02-22T00:36:45.731Z,1008.15
2023-02-22T00:37:45.635Z,1008.15
2023-02-22T00:38:45.654Z,1008.12
2023-02-22T00:39:45.620Z,1008.14
2023-02-22T00:40:45.638Z,1008.15
2023-02-22T00:41:45.652Z,1008.14
2023-02-22T00:42:45.594Z,1008.14
2023-02-22T00:43:45.580Z,1008.15
2023-02-22T00:44:45.587Z,1008.13
2023-02-22T00:45:45.591Z,1008.13
2023-02-22T00:46:45.554Z,1008.12
2023-02-22T00:47:45.517Z,1008.08
2023-02-22T00:48:45.541Z,1008.09
2023-02-22T00:49:45.536Z,1008.06
2023-02-22T00:50:45.523Z,1008.06
2023-02-22T00:51:45.494Z,1008.04
2023-02-22T00:52:45.483Z,1007.99
2023-02-22T00:53:45.478Z,1007.99
2023-02-22T00:54:45.478Z,1008.01
2023-02-22T00:55:45.461Z,1007.96
2023-02-22T00:56:45.464Z,1008.00
2023-02-22T00:57:45.429Z,1007.99
2023-02-22T00:58:45.436Z,1007.96
2023-02-22T00:59:45.411Z,1007.97
2023-02-22T01:00:45.408Z,1007.95
2023-02-22T01:01:45.366Z,1007.95
2023-02-22T01:02:45.399Z,1007.95
2023-02-22T01:03:45.351Z,1007.93
2023-02-22T01:04:45.369Z,1007.89
2023-02-22T01:05:45.353Z,1007.93
2023-02-22T01:06:45.348Z,1007.89
2023-02-22T01:07:45.398Z,1007.87
2023-02-22T01:08:45.329Z,1007.88
2023-02-22T01:09:45.296Z,1007.84
2023-02-22T01:10:45.308Z,1007.86
2023-02-22T01:11:45.284Z,1007.83
2023-02-22T01:12:45.270Z,1007.89
2023-02-22T01:13:46.222Z,1007.85
2023-02-22T01:14:45.263Z,1007.84
2023-02-22T01:15:45.251Z,1007.87
2023-02-22T01:16:45.255Z,1007.85
2023-02-22T01:17:45.201Z,1007.83
2023-02-22T01:18:45.205Z,1007.87
2023-02-22T01:19:45.215Z,1007.86
2023-02-22T01:20:45.206Z,1007.85
2023-02-22T01:21:45.155Z,1007.88
2023-02-22T01:22:53.701Z,1007.88
2023-02-22T01:23:54.676Z,1007.86
2023-02-22T01:24:45.129Z,1007.86
2023-02-22T01:25:45.110Z,1007.84
2023-02-22T01:26:45.094Z,1007.85
2023-02-22T01:27:45.089Z,1007.91
2023-02-22T01:28:45.096Z,1007.88
2023-02-22T01:29:45.076Z,1007.88
2023-02-22T01:30:45.136Z,1007.87
2023-02-22T01:31:45.057Z,1007.81
2023-02-22T01:32:45.056Z,1007.83
2023-02-22T01:33:45.049Z,1007.81
2023-02-22T01:34:45.040Z,1007.77
2023-02-22T01:35:45.012Z,1007.76
2023-02-22T01:36:45.012Z,1007.78
2023-02-22T01:37:44.996Z,1007.77
2023-02-22T01:38:45.101Z,1007.77
2023-02-22T01:39:44.966Z,1007.75
2023-02-22T01:40:44.969Z,1007.72
2023-02-22T01:41:44.944Z,1007.73
2023-02-22T01:42:44.933Z,1007.73
2023-02-22T01:43:44.925Z,1007.70
2023-02-22T01:44:44.911Z,1007.70
2023-02-22T01:45:44.917Z,1007.65
2023-02-22T01:46:44.908Z,1007.70
2023-02-22T01:47:44.886Z,1007.66
2023-02-22T01:48:44.900Z,1007.63
2023-02-22T01:49:44.864Z,1007.64
2023-02-22T01:50:44.895Z,1007.62
2023-02-22T01:51:44.869Z,1007.57
2023-02-22T01:52:44.837Z,1007.57
2023-02-22T01:53:44.829Z,1007.56
2023-02-22T01:54:44.822Z,1007.55
2023-02-22T01:55:44.800Z,1007.53
2023-02-22T01:56:44.790Z,1007.53
2023-02-22T01:57:44.789Z,1007.46
2023-02-22T01:58:44.802Z,1007.49
2023-02-22T01:59:44.745Z,1007.43
2023-02-22T02:00:44.802Z,1007.51
2023-02-22T02:01:44.761Z,1007.43
2023-02-22T02:02:44.745Z,1007.42
2023-02-22T02:03:44.714Z,1007.43
2023-02-22T02:04:44.776Z,1007.44
2023-02-22T02:05:44.693Z,1007.39
2023-02-22T02:06:44.707Z,1007.35
2023-02-22T02:07:44.670Z,1007.38
2023-02-22T02:08:44.681Z,1007.35
2023-02-22T02:09:44.672Z,1007.33
2023-02-22T02:10:44.648Z,1007.34
2023-02-22T02:11:44.661Z,1007.32
2023-02-22T02:12:44.626Z,1007.33
2023-02-22T02:13:44.599Z,1007.32
2023-02-22T02:14:44.616Z,1007.32
2023-02-22T02:15:44.592Z,1007.26
2023-02-22T02:16:44.637Z,1007.22
2023-02-22T02:17:44.545Z,1007.26
2023-02-22T02:18:44.560Z,1007.25
2023-02-22T02:19:44.575Z,1007.21
2023-02-22T02:20:44.558Z,1007.21
2023-02-22T02:21:44.520Z,1007.23
2023-02-22T02:22:44.530Z,1007.22
2023-02-22T02:23:44.497Z,1007.23
2023-02-22T02:24:44.488Z,1007.29
2023-02-22T02:25:44.502Z,1007.22
2023-02-22T02:26:44.486Z,1007.21
2023-02-22T02:27:44.461Z,1007.23
2023-02-22T02:28:44.448Z,1007.22
2023-02-22T02:29:44.434Z,1007.21
2023-02-22T02:30:44.456Z,1007.24
2023-02-22T02:31:44.494Z,1007.23
2023-02-22T02:32:44.576Z,1007.18
2023-02-22T02:33:44.393Z,1007.17
2023-02-22T02:34:44.384Z,1007.17
2023-02-22T02:35:44.367Z,1007.14
2023-02-22T02:36:44.396Z,1007.13
2023-02-22T02:37:44.348Z,1007.12
2023-02-22T02:38:44.392Z,1007.09
2023-02-22T02:39:44.309Z,1007.05
2023-02-22T02:40:44.394Z,1007.06
2023-02-22T02:41:44.322Z,1007.09
2023-02-22T02:42:44.295Z,1007.10
2023-02-22T02:43:44.315Z,1007.06
2023-02-22T02:44:44.288Z,1007.07
2023-02-22T02:45:44.270Z,1007.03
2023-02-22T02:46:44.269Z,1007.00
2023-02-22T02:47:44.229Z,1006.98
2023-02-22T02:48:44.277Z,1006.94
2023-02-22T02:49:44.215Z,1006.95
2023-02-22T02:50:44.261Z,1006.95
2023-02-22T02:51:44.252Z,1006.90
2023-02-22T02:52:44.193Z,1006.86
2023-02-22T02:53:44.176Z,1006.93
2023-02-22T02:54:44.193Z,1006.92
2023-02-22T02:55:44.148Z,1006.92
2023-02-22T02:56:44.181Z,1006.84
2023-02-22T02:57:44.134Z,1006.91
2023-02-22T02:58:44.143Z,1006.90
2023-02-22T02:59:44.119Z,1006.86
2023-02-22T03:00:44.116Z,1006.86
2023-02-22T03:01:44.143Z,1006.80
2023-02-22T03:02:44.085Z,1006.84
2023-02-22T03:03:44.084Z,1006.78
2023-02-22T03:04:44.074Z,1006.81
2023-02-22T03:05:44.060Z,1006.73
2023-02-22T03:06:44.064Z,1006.74
2023-02-22T03:07:44.056Z,1006.69
2023-02-22T03:08:44.021Z,1006.66
2023-02-22T03:09:44.019Z,1006.65
2023-02-22T03:10:44.715Z,1006.61
2023-02-22T03:11:44.047Z,1006.59
2023-02-22T03:12:43.972Z,1006.60
2023-02-22T03:13:43.982Z,1006.56
2023-02-22T03:14:43.954Z,1006.61
2023-02-22T03:15:43.938Z,1006.62
2023-02-22T03:16:43.991Z,1006.62
2023-02-22T03:17:43.935Z,1006.61
2023-02-22T03:18:43.940Z,1006.63
2023-02-22T03:19:43.920Z,1006.63
2023-02-22T03:20:43.899Z,1006.64
2023-02-22T03:21:43.879Z,1006.65
2023-02-22T03:22:43.896Z,1006.64
2023-02-22T03:23:43.845Z,1006.66
2023-02-22T03:24:43.976Z,1006.66
2023-02-22T03:25:43.855Z,1006.69
2023-02-22T03:26:43.843Z,1006.73
2023-02-22T03:27:43.927Z,1006.74
2023-02-22T03:28:43.840Z,1006.71
2023-02-22T03:29:43.815Z,1006.74
2023-02-22T03:30:43.812Z,1006.74
2023-02-22T03:31:43.869Z,1006.70
2023-02-22T03:32:43.814Z,1006.66
2023-02-22T03:33:43.783Z,1006.65
2023-02-22T03:34:43.805Z,1006.67
2023-02-22T03:35:43.777Z,1006.65
2023-02-22T03:36:43.760Z,1006.63
2023-02-22T03:37:43.741Z,1006.62
2023-02-22T03:38:43.774Z,1006.55
2023-02-22T03:39:43.794Z,1006.51
2023-02-22T03:40:44.584Z,1006.54
2023-02-22T03:41:43.727Z,1006.50
2023-02-22T03:42:43.804Z,1006.53
2023-02-22T03:43:43.649Z,1006.48
2023-02-22T03:44:43.652Z,1006.56
2023-02-22T03:45:43.639Z,1006.57
2023-02-22T03:46:43.623Z,1006.58
2023-02-22T03:47:43.614Z,1006.59
2023-02-22T03:48:43.610Z,1006.59
2023-02-22T03:49:43.595Z,1006.56
2023-02-22T03:50:43.647Z,1006.58
2023-02-22T03:51:43.561Z,1006.61
2023-02-22T03:52:43.546Z,1006.61
2023-02-22T03:53:43.544Z,1006.59
2023-02-22T03:54:43.553Z,1006.58
2023-02-22T03:55:43.513Z,1006.56
2023-02-22T03:56:43.537Z,1006.54
2023-02-22T03:57:43.512Z,1006.55
2023-02-22T03:58:43.502Z,1006.55
2023-02-22T03:59:43.496Z,1006.49
2023-02-22T04:00:43.468Z,1006.54
2023-02-22T04:01:52.010Z,1006.46
2023-02-22T04:02:44.312Z,1006.48
2023-02-22T04:03:43.443Z,1006.48
2023-02-22T04:04:43.519Z,1006.46
2023-02-22T04:05:43.448Z,1006.47
2023-02-22T04:06:43.409Z,1006.48
2023-02-22T04:07:43.407Z,1006.47
2023-02-22T04:08:43.401Z,1006.48
2023-02-22T04:09:43.381Z,1006.50
2023-02-22T04:10:43.371Z,1006.47
2023-02-22T04:11:43.387Z,1006.53
2023-02-22T04:12:43.341Z,1006.53
2023-02-22T04:13:43.462Z,1006.50
2023-02-22T04:14:43.343Z,1006.53
2023-02-22T04:15:43.340Z,1006.52
2023-02-22T04:16:43.318Z,1006.52
2023-02-22T04:17:43.317Z,1006.50
2023-02-22T04:18:43.288Z,1006.52
2023-02-22T04:19:43.276Z,1006.53
2023-02-22T04:20:43.268Z,1006.50
2023-02-22T04:21:43.268Z,1006.48
2023-02-22T04:22:43.240Z,1006.53
2023-02-22T04:23:43.253Z,1006.48
2023-02-22T04:24:43.243Z,1006.44
2023-02-22T04:25:43.213Z,1006.46
2023-02-22T04:26:43.203Z,1006.49
2023-02-22T04:27:43.204Z,1006.51
2023-02-22T04:28:43.184Z,1006.54
2023-02-22T04:29:43.167Z,1006.52
2023-02-22T04:30:43.182Z,1006.53
2023-02-22T04:31:43.213Z,1006.52
2023-02-22T04:32:43.132Z,1006.48
2023-02-22T04:33:43.130Z,1006.49
2023-02-22T04:34:43.121Z,1006.49
2023-02-22T04:35:43.127Z,1006.47
2023-02-22T04:36:43.087Z,1006.48
2023-02-22T04:37:43.116Z,1006.53
2023-02-22T04:38:43.088Z,1006.53
2023-02-22T04:39:43.086Z,1006.52
2023-02-22T04:40:43.073Z,1006.53
2023-02-22T04:41:43.074Z,1006.48
2023-02-22T04:42:43.020Z,1006.51
2023-02-22T04:43:43.057Z,1006.50
2023-02-22T04:44:43.192Z,1006.52
2023-02-22T04:45:42.992Z,1006.51
2023-02-22T04:46:43.024Z,1006.48
2023-02-22T04:47:42.974Z,1006.51
2023-02-22T04:48:42.971Z,1006.50
2023-02-22T04:49:42.970Z,1006.53
2023-02-22T04:50:42.930Z,1006.49
2023-02-22T04:51:42.942Z,1006.45
2023-02-22T04:52:42.950Z,1006.46
2023-02-22T04:53:42.944Z,1006.43
2023-02-22T04:54:42.906Z,1006.46
2023-02-22T04:55:42.910Z,1006.48
2023-02-22T04:56:42.902Z,1006.49
2023-02-22T04:57:42.915Z,1006.45
2023-02-22T04:58:42.852Z,1006.45
2023-02-22T04:59:42.856Z,1006.44
2023-02-22T05:00:42.829Z,1006.46
2023-02-22T05:01:42.854Z,1006.40
2023-02-22T05:02:42.842Z,1006.40
2023-02-22T05:03:42.829Z,1006.40
2023-02-22T05:04:42.842Z,1006.41
2023-02-22T05:05:42.795Z,1006.38
2023-02-22T05:06:42.777Z,1006.35
2023-02-22T05:07:42.757Z,1006.32
2023-02-22T05:08:42.752Z,1006.28
2023-02-22T05:09:42.744Z,1006.31
2023-02-22T05:10:42.711Z,1006.25
2023-02-22T05:11:42.734Z,1006.29
2023-02-22T05:12:42.720Z,1006.30
2023-02-22T05:13:42.779Z,1006.26
2023-02-22T05:14:42.701Z,1006.25
2023-02-22T05:15:42.783Z,1006.23
2023-02-22T05:16:43.900Z,1006.24
2023-02-22T05:17:42.679Z,1006.21
2023-02-22T05:18:42.651Z,1006.19
2023-02-22T05:19:42.679Z,1006.11
2023-02-22T05:20:42.638Z,1006.14
2023-02-22T05:21:42.624Z,1006.12
2023-02-22T05:22:42.596Z,1006.11
2023-02-22T05:23:42.601Z,1006.05
2023-02-22T05:24:42.581Z,1006.09
2023-02-22T05:25:42.574Z,1006.07
2023-02-22T05:26:42.597Z,1006.04
2023-02-22T05:27:42.536Z,1006.08
2023-02-22T05:28:42.546Z,1006.09
2023-02-22T05:29:42.548Z,1006.08
2023-02-22T05:30:42.627Z,1006.07
2023-02-22T05:31:42.640Z,1006.08
2023-02-22T05:32:42.486Z,1006.10
2023-02-22T05:33:42.484Z,1006.11
2023-02-22T05:34:42.540Z,1006.09
2023-02-22T05:35:42.479Z,1006.09
2023-02-22T05:36:42.554Z,1006.10
2023-02-22T05:37:42.453Z,1006.11
2023-02-22T05:38:42.418Z,1006.10
2023-02-22T05:39:42.436Z,1006.10
2023-02-22T05:40:42.421Z,1006.10
2023-02-22T05:41:42.412Z,1006.09
2023-02-22T05:42:42.476Z,1006.07
2023-02-22T05:43:42.546Z,1006.09
2023-02-22T05:44:42.400Z,1006.08
2023-02-22T05:45:42.424Z,1006.05
2023-02-22T05:46:42.527Z,1006.06
2023-02-22T05:47:42.526Z,1006.07
2023-02-22T05:48:42.362Z,1006.08
2023-02-22T05:49:42.436Z,1006.03
2023-02-22T05:50:42.363Z,1006.04
2023-02-22T05:51:42.343Z,1005.98
2023-02-22T05:52:42.322Z,1006.01
2023-02-22T05:53:42.435Z,1006.00
2023-02-22T05:54:42.283Z,1005.97
2023-02-22T05:55:42.404Z,1005.96
2023-02-22T05:56:42.267Z,1005.98
2023-02-22T05:57:42.297Z,1005.93
2023-02-22T05:58:42.253Z,1006.00
2023-02-22T05:59:42.250Z,1005.99
2023-02-22T06:00:42.230Z,1005.99
2023-02-22T06:01:42.425Z,1006.00
2023-02-22T06:02:42.209Z,1006.01
2023-02-22T06:03:42.220Z,1005.97
2023-02-22T06:04:42.249Z,1005.96
2023-02-22T06:05:42.265Z,1005.97
2023-02-22T06:06:42.173Z,1005.92
2023-02-22T06:07:42.184Z,1005.98
2023-02-22T06:08:42.140Z,1005.96
2023-02-22T06:09:42.301Z,1005.94
2023-02-22T06:10:42.171Z,1005.94
2023-02-22T06:11:42.202Z,1005.95
2023-02-22T06:12:42.144Z,1005.92
2023-02-22T06:13:42.108Z,1005.93
2023-02-22T06:14:42.129Z,1005.92
2023-02-22T06:15:42.129Z,1005.94
2023-02-22T06:16:42.142Z,1005.95
2023-02-22T06:17:42.125Z,1005.93
2023-02-22T06:18:42.136Z,1005.95
2023-02-22T06:19:42.034Z,1005.95
2023-02-22T06:20:42.096Z,1005.97
2023-02-22T06:21:42.021Z,1005.93
2023-02-22T06:22:42.068Z,1005.95
2023-02-22T06:23:42.088Z,1005.95
2023-02-22T06:24:41.992Z,1005.92
2023-02-22T06:25:42.010Z,1005.93
2023-02-22T06:26:42.026Z,1005.97
2023-02-22T06:27:41.987Z,1006.01
2023-02-22T06:28:41.977Z,1005.96
2023-02-22T06:29:41.977Z,1005.96
2023-02-22T06:30:41.943Z,1005.97
2023-02-22T06:31:42.025Z,1005.95
2023-02-22T06:32:41.918Z,1005.93
2023-02-22T06:33:41.949Z,1005.95
2023-02-22T06:34:41.892Z,1005.95
2023-02-22T06:35:41.902Z,1005.94
2023-02-22T06:36:41.906Z,1005.95
2023-02-22T06:37:41.867Z,1005.96
2023-02-22T06:38:41.875Z,1005.95
2023-02-22T06:39:41.883Z,1005.98
2023-02-22T06:40:41.824Z,1005.98
2023-02-22T06:41:41.871Z,1005.99
2023-02-22T06:42:41.999Z,1005.97
2023-02-22T06:43:41.839Z,1005.96
2023-02-22T06:44:41.781Z,1005.98
2023-02-22T06:45:41.829Z,1006.01
2023-02-22T06:46:41.862Z,1006.00
2023-02-22T06:47:41.767Z,1005.97
2023-02-22T06:48:41.829Z,1005.99
2023-02-22T06:49:41.720Z,1005.99
2023-02-22T06:50:41.717Z,1006.03
2023-02-22T06:51:41.712Z,1006.01
2023-02-22T06:52:41.682Z,1005.92
2023-02-22T06:53:41.707Z,1005.98
2023-02-22T06:54:41.661Z,1005.97
2023-02-22T06:55:41.691Z,1005.96
2023-02-22T06:56:41.640Z,1005.97
2023-02-22T06:57:41.730Z,1005.96
2023-02-22T06:58:41.637Z,1005.96
2023-02-22T06:59:41.657Z,1005.99
2023-02-22T07:00:41.654Z,1005.99
2023-02-22T07:01:41.644Z,1005.99
2023-02-22T07:02:41.572Z,1005.97
2023-02-22T07:03:41.689Z,1005.99
2023-02-22T07:04:43.379Z,1005.99
2023-02-22T07:05:41.674Z,1005.95
2023-02-22T07:06:41.538Z,1005.91
2023-02-22T07:07:41.621Z,1005.96
2023-02-22T07:08:41.558Z,1005.98
2023-02-22T07:09:41.530Z,1006.01
2023-02-22T07:10:41.499Z,1005.99
2023-02-22T07:11:41.491Z,1006.04
2023-02-22T07:12:41.560Z,1006.00
2023-02-22T07:13:41.460Z,1006.04
2023-02-22T07:14:41.451Z,1006.00
2023-02-22T07:15:42.481Z,1006.05
2023-02-22T07:16:41.579Z,1006.04
2023-02-22T07:17:41.443Z,1006.06
2023-02-22T07:18:41.423Z,1006.08
2023-02-22T07:19:41.726Z,1006.05
2023-02-22T07:20:41.411Z,1006.02
2023-02-22T07:21:41.423Z,1006.06
2023-02-22T07:22:41.403Z,1006.06
2023-02-22T07:23:41.398Z,1006.04
2023-02-22T07:24:41.418Z,1006.07
2023-02-22T07:25:41.362Z,1006.03
2023-02-22T07:26:41.366Z,1006.05
2023-02-22T07:27:41.427Z,1006.05
2023-02-22T07:28:41.388Z,1005.99
2023-02-22T07:29:41.399Z,1006.05
2023-02-22T07:30:41.405Z,1006.05
2023-02-22T07:31:41.389Z,1006.00
2023-02-22T07:32:41.399Z,1006.00
2023-02-22T07:33:41.329Z,1006.03
2023-02-22T07:34:41.268Z,1006.01
2023-02-22T07:35:41.249Z,1006.00
2023-02-22T07:36:41.294Z,1006.08
2023-02-22T07:37:41.263Z,1006.05
2023-02-22T07:38:41.257Z,1006.08
2023-02-22T07:39:41.299Z,1005.99
2023-02-22T07:40:41.203Z,1006.00
2023-02-22T07:41:41.204Z,1006.03
2023-02-22T07:42:41.217Z,1006.01
2023-02-22T07:43:41.159Z,1006.01
2023-02-22T07:44:41.167Z,1006.02
2023-02-22T07:45:41.233Z,1006.03
2023-02-22T07:46:41.329Z,1006.02
2023-02-22T07:47:41.138Z,1006.06
2023-02-22T07:48:41.124Z,1006.06
2023-02-22T07:49:41.093Z,1006.11
2023-02-22T07:50:41.307Z,1006.00
2023-02-22T07:51:41.077Z,1005.99
2023-02-22T07:52:41.086Z,1006.04
2023-02-22T07:53:41.058Z,1005.98
2023-02-22T07:54:41.058Z,1005.99
2023-02-22T07:55:41.064Z,1006.01
2023-02-22T07:56:41.075Z,1006.02
2023-02-22T07:57:41.045Z,1006.00
2023-02-22T07:58:41.055Z,1005.99
2023-02-22T07:59:41.069Z,1005.95
2023-02-22T08:00:40.968Z,1005.94
2023-02-22T08:01:41.035Z,1005.92
2023-02-22T08:02:41.043Z,1005.96
2023-02-22T08:03:41.032Z,1005.94
2023-02-22T08:04:40.953Z,1005.92
2023-02-22T08:05:40.950Z,1005.92
2023-02-22T08:06:40.984Z,1005.94
2023-02-22T08:07:40.901Z,1005.90
2023-02-22T08:08:40.914Z,1005.90
2023-02-22T08:09:41.008Z,1005.90
2023-02-22T08:10:40.859Z,1005.89
2023-02-22T08:11:40.881Z,1005.88
2023-02-22T08:12:40.843Z,1005.80
2023-02-22T08:13:40.903Z,1005.82
2023-02-22T08:14:40.827Z,1005.83
2023-02-22T08:15:40.826Z,1005.82
2023-02-22T08:16:40.847Z,1005.84
2023-02-22T08:17:40.844Z,1005.82
2023-02-22T08:18:40.873Z,1005.79
2023-02-22T08:19:40.776Z,1005.73
2023-02-22T08:20:40.788Z,1005.74
2023-02-22T08:21:40.899Z,1005.75
2023-02-22T08:22:40.854Z,1005.73
2023-02-22T08:23:40.774Z,1005.72
2023-02-22T08:24:40.714Z,1005.72
2023-02-22T08:25:40.717Z,1005.77
2023-02-22T08:26:40.729Z,1005.77
2023-02-22T08:27:40.755Z,1005.75
2023-02-22T08:28:40.728Z,1005.76
2023-02-22T08:29:40.669Z,1005.76
2023-02-22T08:30:40.884Z,1005.70
2023-02-22T08:31:40.648Z,1005.64
2023-02-22T08:32:40.681Z,1005.67
2023-02-22T08:33:40.614Z,1005.71
2023-02-22T08:34:40.610Z,1005.65
2023-02-22T08:35:40.623Z,1005.68
2023-02-22T08:36:40.586Z,1005.70
2023-02-22T08:37:40.588Z,1005.67
2023-02-22T08:38:40.572Z,1005.64
2023-02-22T08:39:40.544Z,1005.63
2023-02-22T08:40:40.525Z,1005.61
2023-02-22T08:41:40.493Z,1005.61
2023-02-22T08:42:40.490Z,1005.61
2023-02-22T08:43:40.490Z,1005.63
2023-02-22T08:44:40.492Z,1005.58
2023-02-22T08:45:40.494Z,1005.63
2023-02-22T08:46:40.493Z,1005.54
2023-02-22T08:47:40.440Z,1005.52
2023-02-22T08:48:40.467Z,1005.56
2023-02-22T08:49:40.437Z,1005.54
2023-02-22T08:50:40.441Z,1005.60
2023-02-22T08:51:40.442Z,1005.51
2023-02-22T08:52:40.654Z,1005.49
2023-02-22T08:53:40.477Z,1005.51
2023-02-22T08:54:40.363Z,1005.49
2023-02-22T08:55:40.369Z,1005.51
2023-02-22T08:56:40.438Z,1005.50
2023-02-22T08:57:40.324Z,1005.46
2023-02-22T08:58:40.361Z,1005.45
2023-02-22T08:59:40.345Z,1005.47
2023-02-22T09:00:40.335Z,1005.44
2023-02-22T09:01:40.395Z,1005.47
2023-02-22T09:02:40.318Z,1005.44
2023-02-22T09:03:40.312Z,1005.44
2023-02-22T09:04:40.283Z,1005.45
2023-02-22T09:05:40.338Z,1005.37
2023-02-22T09:06:40.312Z,1005.35
2023-02-22T09:07:40.301Z,1005.38
2023-02-22T09:08:40.247Z,1005.37
2023-02-22T09:09:40.230Z,1005.33
2023-02-22T09:10:40.242Z,1005.31
2023-02-22T09:11:40.298Z,1005.23
2023-02-22T09:12:40.226Z,1005.26
2023-02-22T09:13:40.236Z,1005.21
2023-02-22T09:14:40.266Z,1005.23
2023-02-22T09:15:40.179Z,1005.23
2023-02-22T09:16:40.286Z,1005.23
2023-02-22T09:17:40.119Z,1005.17
2023-02-22T09:18:44.360Z,1005.17
2023-02-22T09:19:40.126Z,1005.21
2023-02-22T09:20:40.081Z,1005.20
2023-02-22T09:21:40.105Z,1005.17
2023-02-22T09:22:40.124Z,1005.18
2023-02-22T09:23:40.121Z,1005.13
2023-02-22T09:24:40.058Z,1005.15
2023-02-22T09:25:40.021Z,1005.13
2023-02-22T09:26:40.046Z,1005.11
2023-02-22T09:27:40.013Z,1005.12
2023-02-22T09:28:40.046Z,1005.08
2023-02-22T09:29:39.970Z,1005.09
2023-02-22T09:30:40.092Z,1005.07
2023-02-22T09:31:40.120Z,1005.00
2023-02-22T09:32:40.047Z,1005.00
2023-02-22T09:33:39.942Z,1005.05
2023-02-22T09:34:39.956Z,1005.04
2023-02-22T09:35:39.954Z,1005.04
2023-02-22T09:36:39.957Z,1005.08
2023-02-22T09:37:39.984Z,1005.03
2023-02-22T09:38:39.929Z,1005.02
2023-02-22T09:39:39.946Z,1005.03
2023-02-22T09:40:39.998Z,1005.02
2023-02-22T09:41:39.891Z,1005.02
2023-02-22T09:42:39.864Z,1004.98
2023-02-22T09:43:39.845Z,1004.97
2023-02-22T09:44:39.840Z,1005.00
2023-02-22T09:45:39.827Z,1004.99
2023-02-22T09:46:39.882Z,1004.97
2023-02-22T09:47:39.836Z,1004.95
2023-02-22T09:48:39.813Z,1004.95
2023-02-22T09:49:39.801Z,1004.85
2023-02-22T09:50:39.786Z,1004.86
2023-02-22T09:51:39.770Z,1004.86
2023-02-22T09:52:39.757Z,1004.86
2023-02-22T09:53:39.767Z,1004.85
2023-02-22T09:54:39.876Z,1004.85
2023-02-22T09:55:39.697Z,1004.83
2023-02-22T09:56:39.701Z,1004.86
2023-02-22T09:57:39.694Z,1004.85
2023-02-22T09:58:41.775Z,1004.83
2023-02-22T09:59:39.661Z,1004.82
2023-02-22T10:00:39.661Z,1004.80
2023-02-22T10:01:46.643Z,1004.83
2023-02-22T10:02:41.436Z,1004.81
2023-02-22T10:03:42.330Z,1004.81
2023-02-22T10:04:39.599Z,1004.78
2023-02-22T10:05:39.708Z,1004.76
2023-02-22T10:06:39.619Z,1004.73
2023-02-22T10:07:39.580Z,1004.74
2023-02-22T10:08:39.554Z,1004.71
2023-02-22T10:09:39.555Z,1004.74
2023-02-22T10:10:39.553Z,1004.72
2023-02-22T10:11:39.515Z,1004.72
2023-02-22T10:12:40.248Z,1004.67
2023-02-22T10:13:39.491Z,1004.69
2023-02-22T10:14:40.285Z,1004.69
2023-02-22T10:15:39.503Z,1004.67
2023-02-22T10:16:40.503Z,1004.61
2023-02-22T10:17:39.459Z,1004.61
2023-02-22T10:18:39.459Z,1004.58
2023-02-22T10:19:39.453Z,1004.62
2023-02-22T10:20:39.432Z,1004.60
2023-02-22T10:21:39.410Z,1004.61
2023-02-22T10:22:39.422Z,1004.61
2023-02-22T10:23:40.336Z,1004.62
2023-02-22T10:24:39.389Z,1004.55
2023-02-22T10:25:39.411Z,1004.50
2023-02-22T10:26:39.373Z,1004.48
2023-02-22T10:27:39.351Z,1004.50
2023-02-22T10:28:39.352Z,1004.48
2023-02-22T10:29:39.321Z,1004.51
2023-02-22T10:30:39.396Z,1004.50
2023-02-22T10:31:39.324Z,1004.51
2023-02-22T10:32:39.340Z,1004.46
2023-02-22T10:33:39.276Z,1004.48
2023-02-22T10:34:39.292Z,1004.50
2023-02-22T10:35:39.303Z,1004.51
2023-02-22T10:36:39.278Z,1004.48
2023-02-22T10:37:39.356Z,1004.47
2023-02-22T10:38:39.262Z,1004.43
2023-02-22T10:39:39.236Z,1004.42
2023-02-22T10:40:39.233Z,1004.36
2023-02-22T10:41:39.197Z,1004.37
2023-02-22T10:42:39.194Z,1004.38
2023-02-22T10:43:40.163Z,1004.30
2023-02-22T10:44:39.211Z,1004.37
2023-02-22T10:45:39.176Z,1004.38
2023-02-22T10:46:39.154Z,1004.36
2023-02-22T10:47:39.140Z,1004.26
2023-02-22T10:48:39.145Z,1004.29
2023-02-22T10:49:39.109Z,1004.33
2023-02-22T10:50:39.270Z,1004.32
2023-02-22T10:51:39.098Z,1004.28
2023-02-22T10:52:39.084Z,1004.27
2023-02-22T10:53:39.101Z,1004.28
2023-02-22T10:54:39.090Z,1004.26
2023-02-22T10:55:39.092Z,1004.29
2023-02-22T10:56:39.142Z,1004.23
2023-02-22T10:57:39.028Z,1004.23
2023-02-22T10:58:39.024Z,1004.27
2023-02-22T10:59:39.000Z,1004.24
2023-02-22T11:00:38.998Z,1004.25
2023-02-22T11:01:39.019Z,1004.23
2023-02-22T11:02:38.981Z,1004.18
2023-02-22T11:03:38.968Z,1004.16
2023-02-22T11:04:38.972Z,1004.20
2023-02-22T11:05:38.951Z,1004.15
2023-02-22T11:06:38.958Z,1004.19
2023-02-22T11:07:38.943Z,1004.14
2023-02-22T11:08:38.900Z,1004.17
2023-02-22T11:09:38.887Z,1004.21
2023-02-22T11:10:38.887Z,1004.16
2023-02-22T11:11:38.872Z,1004.16
2023-02-22T11:12:38.870Z,1004.12
2023-02-22T11:13:38.839Z,1004.14
2023-02-22T11:14:38.850Z,1004.10
2023-02-22T11:15:38.832Z,1004.05
2023-02-22T11:16:38.850Z,1004.08
2023-02-22T11:17:38.801Z,1004.06
2023-02-22T11:18:38.814Z,1004.03
2023-02-22T11:19:38.784Z,1004.06
2023-02-22T11:20:38.778Z,1004.05
2023-02-22T11:21:38.770Z,1004.06
2023-02-22T11:22:38.770Z,1004.07
2023-02-22T11:23:38.745Z,1004.04
2023-02-22T11:24:48.803Z,1003.99
2023-02-22T11:25:39.736Z,1004.00
2023-02-22T11:26:38.721Z,1003.99
2023-02-22T11:27:38.839Z,1003.97
2023-02-22T11:28:38.731Z,1004.00
2023-02-22T11:29:38.671Z,1003.94
2023-02-22T11:30:38.747Z,1003.95
2023-02-22T11:31:38.865Z,1003.93
2023-02-22T11:32:38.671Z,1003.90
2023-02-22T11:33:38.642Z,1003.90
2023-02-22T11:34:38.657Z,1003.89
2023-02-22T11:35:38.640Z,1003.87
2023-02-22T11:36:38.610Z,1003.88
2023-02-22T11:37:38.604Z,1003.87
2023-02-22T11:38:38.595Z,1003.91
2023-02-22T11:39:38.637Z,1003.82
2023-02-22T11:40:38.559Z,1003.80
2023-02-22T11:41:38.535Z,1003.83
2023-02-22T11:42:38.549Z,1003.81
2023-02-22T11:43:38.554Z,1003.74
2023-02-22T11:44:38.553Z,1003.74
2023-02-22T11:45:44.074Z,1003.79
2023-02-22T11:46:39.524Z,1003.71
2023-02-22T11:47:38.479Z,1003.70
2023-02-22T11:48:39.223Z,1003.66
2023-02-22T11:49:38.468Z,1003.71
2023-02-22T11:50:38.562Z,1003.69
2023-02-22T11:51:38.426Z,1003.70
2023-02-22T11:52:38.432Z,1003.67
2023-02-22T11:53:38.424Z,1003.66
2023-02-22T11:54:38.426Z,1003.65
2023-02-22T11:55:43.308Z,1003.56
2023-02-22T11:56:39.924Z,1003.53
2023-02-22T11:57:38.380Z,1003.49
2023-02-22T11:58:38.473Z,1003.49
2023-02-22T11:59:38.364Z,1003.47
2023-02-22T12:00:38.400Z,1003.49
2023-02-22T12:01:38.355Z,1003.47
2023-02-22T12:02:40.023Z,1003.41
2023-02-22T12:03:38.379Z,1003.42
2023-02-22T12:04:38.420Z,1003.36
2023-02-22T12:05:38.301Z,1003.37